createdAt,value
2019-05-11T00:00:22.022Z,999.75
2019-05-11T00:01:22.260Z,999.69
2019-05-11T00:02:22.347Z,999.69
2019-05-11T00:03:22.570Z,999.73
2019-05-11T00:04:22.773Z,999.65
2019-05-11T00:05:22.943Z,999.72
2019-05-11T00:06:23.142Z,999.68
2019-05-11T00:07:23.345Z,999.59
2019-05-11T00:08:23.549Z,999.56
2019-05-11T00:09:23.743Z,999.57
2019-05-11T00:10:23.955Z,999.56
2019-05-11T00:11:24.147Z,999.55
2019-05-11T00:12:24.339Z,999.52
2019-05-11T00:13:24.532Z,999.63
2019-05-11T00:14:24.754Z,999.63
2019-05-11T00:15:24.946Z,999.66
2019-05-11T00:16:25.132Z,999.64
2019-05-11T00:17:25.341Z,999.67
2019-05-11T00:18:25.510Z,999.69
2019-05-11T00:19:25.736Z,999.64
2019-05-11T00:20:25.899Z,999.62
2019-05-11T00:21:26.097Z,999.63
2019-05-11T00:22:26.279Z,999.61
2019-05-11T00:23:26.471Z,999.58
2019-05-11T00:24:29.404Z,999.56
2019-05-11T00:25:27.831Z,999.60
2019-05-11T00:26:27.021Z,999.54
2019-05-11T00:27:27.221Z,999.67
2019-05-11T00:28:27.396Z,999.63
2019-05-11T00:29:27.566Z,999.67
2019-05-11T00:30:27.761Z,999.66
2019-05-11T00:31:27.955Z,999.61
2019-05-11T00:32:28.121Z,999.60
2019-05-11T00:33:28.311Z,999.61
2019-05-11T00:34:28.495Z,999.56
2019-05-11T00:35:28.643Z,999.60
2019-05-11T00:36:28.827Z,999.57
2019-05-11T00:37:29.031Z,999.57
2019-05-11T00:38:29.190Z,999.55
2019-05-11T00:39:29.319Z,999.60
2019-05-11T00:40:29.482Z,999.50
2019-05-11T00:41:29.631Z,999.45
2019-05-11T00:42:29.843Z,999.47
2019-05-11T00:43:30.024Z,999.48
2019-05-11T00:44:30.187Z,999.44
2019-05-11T00:45:30.355Z,999.49
2019-05-11T00:46:30.535Z,999.50
2019-05-11T00:47:30.725Z,999.43
2019-05-11T00:48:30.878Z,999.34
2019-05-11T00:49:31.033Z,999.40
2019-05-11T00:50:39.276Z,999.36
2019-05-11T00:51:33.296Z,999.38
2019-05-11T00:52:31.575Z,999.35
2019-05-11T00:53:31.761Z,999.34
2019-05-11T00:54:31.932Z,999.33
2019-05-11T00:55:32.119Z,999.44
2019-05-11T00:56:32.328Z,999.35
2019-05-11T00:57:32.522Z,999.37
2019-05-11T00:58:32.669Z,999.32
2019-05-11T00:59:32.844Z,999.35
2019-05-11T01:00:33.000Z,999.35
2019-05-11T01:01:33.205Z,999.32
2019-05-11T01:02:33.361Z,999.32
2019-05-11T01:03:33.540Z,999.34
2019-05-11T01:04:33.743Z,999.25
2019-05-11T01:05:33.885Z,999.27
2019-05-11T01:06:34.070Z,999.29
2019-05-11T01:07:34.275Z,999.21
2019-05-11T01:08:34.472Z,999.26
2019-05-11T01:09:34.624Z,999.21
2019-05-11T01:10:42.186Z,999.18
2019-05-11T01:11:36.934Z,999.17
2019-05-11T01:12:35.088Z,999.20
2019-05-11T01:13:35.263Z,999.20
2019-05-11T01:14:35.499Z,999.17
2019-05-11T01:15:35.695Z,999.21
2019-05-11T01:16:35.881Z,999.25
2019-05-11T01:17:36.065Z,999.28
2019-05-11T01:18:36.254Z,999.17
2019-05-11T01:19:36.467Z,999.22
2019-05-11T01:20:36.654Z,999.24
2019-05-11T01:21:36.859Z,999.21
2019-05-11T01:22:37.047Z,999.24
2019-05-11T01:23:37.237Z,999.20
2019-05-11T01:24:37.424Z,999.17
2019-05-11T01:25:37.666Z,999.20
2019-05-11T01:26:37.747Z,999.15
2019-05-11T01:27:37.951Z,999.22
2019-05-11T01:28:38.172Z,999.22
2019-05-11T01:29:38.379Z,999.22
2019-05-11T01:30:38.928Z,999.15
2019-05-11T01:31:39.696Z,999.14
2019-05-11T01:32:38.892Z,999.15
2019-05-11T01:33:39.041Z,999.18
2019-05-11T01:34:39.123Z,999.14
2019-05-11T01:35:39.330Z,999.17
2019-05-11T01:36:39.520Z,999.17
2019-05-11T01:37:39.707Z,999.21
2019-05-11T01:38:39.925Z,999.20
2019-05-11T01:39:40.115Z,999.19
2019-05-11T01:40:40.276Z,999.23
2019-05-11T01:41:40.454Z,999.12
2019-05-11T01:42:40.647Z,999.07
2019-05-11T01:43:40.849Z,999.19
2019-05-11T01:44:41.028Z,999.21
2019-05-11T01:45:41.196Z,999.22
2019-05-11T01:46:41.375Z,999.21
2019-05-11T01:47:41.574Z,999.10
2019-05-11T01:48:41.777Z,999.16
2019-05-11T01:49:41.963Z,999.14
2019-05-11T01:50:42.136Z,999.22
2019-05-11T01:51:42.303Z,999.24
2019-05-11T01:52:42.482Z,999.18
2019-05-11T01:53:42.632Z,999.06
2019-05-11T01:54:42.840Z,999.16
2019-05-11T01:55:43.028Z,999.26
2019-05-11T01:56:43.204Z,999.20
2019-05-11T01:57:43.422Z,999.16
2019-05-11T01:58:43.575Z,999.20
2019-05-11T01:59:43.785Z,999.13
2019-05-11T02:00:44.165Z,999.08
2019-05-11T02:01:44.109Z,999.04
2019-05-11T02:02:44.297Z,999.03
2019-05-11T02:03:44.479Z,999.00
2019-05-11T02:04:44.703Z,999.05
2019-05-11T02:05:44.887Z,998.96
2019-05-11T02:06:45.058Z,999.00
2019-05-11T02:07:45.262Z,998.99
2019-05-11T02:08:45.452Z,999.00
2019-05-11T02:09:45.664Z,998.97
2019-05-11T02:10:45.855Z,998.96
2019-05-11T02:11:46.024Z,998.91
2019-05-11T02:12:46.224Z,998.94
2019-05-11T02:13:46.402Z,998.91
2019-05-11T02:14:46.564Z,998.91
2019-05-11T02:15:46.749Z,998.93
2019-05-11T02:16:46.907Z,998.87
2019-05-11T02:17:47.092Z,998.87
2019-05-11T02:18:47.261Z,998.88
2019-05-11T02:19:47.423Z,998.89
2019-05-11T02:20:47.610Z,998.96
2019-05-11T02:21:47.810Z,998.90
2019-05-11T02:22:47.988Z,998.95
2019-05-11T02:23:48.167Z,998.94
2019-05-11T02:24:48.323Z,998.94
2019-05-11T02:25:48.474Z,998.88
2019-05-11T02:26:48.656Z,998.91
2019-05-11T02:27:48.857Z,998.97
2019-05-11T02:28:49.022Z,998.97
2019-05-11T02:29:49.176Z,998.93
2019-05-11T02:30:49.326Z,999.01
2019-05-11T02:31:49.528Z,998.96
2019-05-11T02:32:49.696Z,998.90
2019-05-11T02:33:49.857Z,998.94
2019-05-11T02:34:50.002Z,998.91
2019-05-11T02:35:50.159Z,998.89
2019-05-11T02:36:51.373Z,998.90
2019-05-11T02:37:50.499Z,998.82
2019-05-11T02:38:50.655Z,998.83
2019-05-11T02:39:50.873Z,998.84
2019-05-11T02:40:51.026Z,998.79
2019-05-11T02:41:51.212Z,998.78
2019-05-11T02:42:51.351Z,998.76
2019-05-11T02:43:51.540Z,998.71
2019-05-11T02:44:51.703Z,998.72
2019-05-11T02:45:51.875Z,998.69
2019-05-11T02:46:52.052Z,998.65
2019-05-11T02:47:52.184Z,998.68
2019-05-11T02:48:52.337Z,998.70
2019-05-11T02:49:52.482Z,998.69
2019-05-11T02:50:52.651Z,998.72
2019-05-11T02:51:52.851Z,998.68
2019-05-11T02:52:53.015Z,998.71
2019-05-11T02:53:53.192Z,998.72
2019-05-11T02:54:53.337Z,998.77
2019-05-11T02:55:53.502Z,998.83
2019-05-11T02:56:54.710Z,998.75
2019-05-11T02:57:53.852Z,998.77
2019-05-11T02:58:54.014Z,998.81
2019-05-11T02:59:54.199Z,998.76
2019-05-11T03:00:54.402Z,998.81
2019-05-11T03:01:54.611Z,998.71
2019-05-11T03:02:54.818Z,998.78
2019-05-11T03:03:54.975Z,998.72
2019-05-11T03:04:55.145Z,998.79
2019-05-11T03:05:55.327Z,998.85
2019-05-11T03:06:55.538Z,998.85
2019-05-11T03:07:55.738Z,998.88
2019-05-11T03:08:55.926Z,998.90
2019-05-11T03:09:56.104Z,998.90
2019-05-11T03:10:56.272Z,998.90
2019-05-11T03:11:56.653Z,998.93
2019-05-11T03:12:57.659Z,998.94
2019-05-11T03:13:57.812Z,998.90
2019-05-11T03:14:56.927Z,998.91
2019-05-11T03:15:57.090Z,999.00
2019-05-11T03:16:57.267Z,998.93
2019-05-11T03:17:58.455Z,998.93
2019-05-11T03:18:57.634Z,998.94
2019-05-11T03:19:57.812Z,998.90
2019-05-11T03:20:57.985Z,998.91
2019-05-11T03:21:58.170Z,998.97
2019-05-11T03:22:58.380Z,999.00
2019-05-11T03:23:58.580Z,998.98
2019-05-11T03:24:58.772Z,999.04
2019-05-11T03:25:58.938Z,999.07
2019-05-11T03:27:00.139Z,999.04
2019-05-11T03:27:59.302Z,999.11
2019-05-11T03:28:59.504Z,999.15
2019-05-11T03:30:01.003Z,999.15
2019-05-11T03:31:00.958Z,999.19
2019-05-11T03:32:00.098Z,999.20
2019-05-11T03:33:00.238Z,999.16
2019-05-11T03:34:00.924Z,999.19
2019-05-11T03:35:00.551Z,999.12
2019-05-11T03:36:00.887Z,999.12
2019-05-11T03:37:00.851Z,999.11
2019-05-11T03:38:01.061Z,999.09
2019-05-11T03:39:01.294Z,999.19
2019-05-11T03:40:01.550Z,999.13
2019-05-11T03:41:01.658Z,999.17
2019-05-11T03:42:13.952Z,999.12
2019-05-11T03:43:04.087Z,999.16
2019-05-11T03:44:02.265Z,999.15
2019-05-11T03:45:02.502Z,999.17
2019-05-11T03:46:02.668Z,999.15
2019-05-11T03:47:02.797Z,999.14
2019-05-11T03:48:02.952Z,999.18
2019-05-11T03:49:03.128Z,999.18
2019-05-11T03:50:03.379Z,999.24
2019-05-11T03:51:03.589Z,999.27
2019-05-11T03:52:03.813Z,999.22
2019-05-11T03:53:04.012Z,999.25
2019-05-11T03:54:04.195Z,999.27
2019-05-11T03:55:04.607Z,999.23
2019-05-11T03:56:04.643Z,999.31
2019-05-11T03:57:04.703Z,999.32
2019-05-11T03:58:05.505Z,999.35
2019-05-11T03:59:05.016Z,999.31
2019-05-11T04:00:05.198Z,999.33
2019-05-11T04:01:05.384Z,999.43
2019-05-11T04:02:05.580Z,999.40
2019-05-11T04:03:05.740Z,999.38
2019-05-11T04:04:06.091Z,999.39
2019-05-11T04:05:06.600Z,999.27
2019-05-11T04:06:06.209Z,999.37
2019-05-11T04:07:06.539Z,999.45
2019-05-11T04:08:06.699Z,999.45
2019-05-11T04:09:06.746Z,999.40
2019-05-11T04:10:06.910Z,999.44
2019-05-11T04:11:07.075Z,999.41
2019-05-11T04:12:07.226Z,999.43
2019-05-11T04:13:07.451Z,999.43
2019-05-11T04:14:07.532Z,999.43
2019-05-11T04:15:07.723Z,999.35
2019-05-11T04:16:07.889Z,999.34
2019-05-11T04:17:08.058Z,999.33
2019-05-11T04:18:08.297Z,999.35
2019-05-11T04:19:08.523Z,999.25
2019-05-11T04:20:08.711Z,999.20
2019-05-11T04:21:08.873Z,999.23
2019-05-11T04:22:09.053Z,999.25
2019-05-11T04:23:09.217Z,999.21
2019-05-11T04:24:09.446Z,999.17
2019-05-11T04:25:09.562Z,999.20
2019-05-11T04:26:10.809Z,999.20
2019-05-11T04:27:10.060Z,999.23
2019-05-11T04:28:10.178Z,999.20
2019-05-11T04:29:10.300Z,999.24
2019-05-11T04:30:11.441Z,999.29
2019-05-11T04:31:10.682Z,999.27
2019-05-11T04:32:10.834Z,999.28
2019-05-11T04:33:10.976Z,999.27
2019-05-11T04:34:11.142Z,999.23
2019-05-11T04:35:11.260Z,999.24
2019-05-11T04:36:11.383Z,999.27
2019-05-11T04:37:11.644Z,999.26
2019-05-11T04:38:11.754Z,999.26
2019-05-11T04:39:11.903Z,999.24
2019-05-11T04:40:12.011Z,999.31
2019-05-11T04:41:12.155Z,999.30
2019-05-11T04:42:12.268Z,999.31
2019-05-11T04:43:12.429Z,999.34
2019-05-11T04:44:12.551Z,999.33
2019-05-11T04:45:12.708Z,999.26
2019-05-11T04:46:12.862Z,999.21
2019-05-11T04:47:13.001Z,999.23
2019-05-11T04:48:14.195Z,999.23
2019-05-11T04:49:13.307Z,999.18
2019-05-11T04:50:13.483Z,999.18
2019-05-11T04:51:14.610Z,999.20
2019-05-11T04:52:13.867Z,999.20
2019-05-11T04:53:14.047Z,999.25
2019-05-11T04:54:14.224Z,999.30
2019-05-11T04:55:14.447Z,999.27
2019-05-11T04:56:14.616Z,999.31
2019-05-11T04:57:14.792Z,999.27
2019-05-11T04:58:14.977Z,999.29
2019-05-11T04:59:15.159Z,999.25
2019-05-11T05:00:15.374Z,999.33
2019-05-11T05:01:15.539Z,999.28
2019-05-11T05:02:15.711Z,999.29
2019-05-11T05:03:15.873Z,999.22
2019-05-11T05:04:16.025Z,999.30
2019-05-11T05:05:16.195Z,999.25
2019-05-11T05:06:24.515Z,999.14
2019-05-11T05:07:18.575Z,999.25
2019-05-11T05:08:21.059Z,999.25
2019-05-11T05:09:18.067Z,999.22
2019-05-11T05:10:21.968Z,999.24
2019-05-11T05:11:19.350Z,999.29
2019-05-11T05:12:17.574Z,999.30
2019-05-11T05:13:17.754Z,999.34
2019-05-11T05:14:17.919Z,999.32
2019-05-11T05:15:18.098Z,999.33
2019-05-11T05:16:18.252Z,999.32
2019-05-11T05:17:18.416Z,999.27
2019-05-11T05:18:18.579Z,999.34
2019-05-11T05:19:18.763Z,999.28
2019-05-11T05:20:18.954Z,999.30
2019-05-11T05:21:19.167Z,999.29
2019-05-11T05:22:19.413Z,999.28
2019-05-11T05:23:19.569Z,999.32
2019-05-11T05:24:19.788Z,999.33
2019-05-11T05:25:19.927Z,999.32
2019-05-11T05:26:20.086Z,999.32
2019-05-11T05:27:20.245Z,999.36
2019-05-11T05:28:20.431Z,999.32
2019-05-11T05:29:20.580Z,999.38
2019-05-11T05:30:20.739Z,999.37
2019-05-11T05:31:20.899Z,999.32
2019-05-11T05:32:21.051Z,999.39
2019-05-11T05:33:21.275Z,999.38
2019-05-11T05:34:21.424Z,999.39
2019-05-11T05:35:21.600Z,999.40
2019-05-11T05:36:21.759Z,999.40
2019-05-11T05:37:21.911Z,999.42
2019-05-11T05:38:22.094Z,999.43
2019-05-11T05:39:22.295Z,999.41
2019-05-11T05:40:22.425Z,999.40
2019-05-11T05:41:22.598Z,999.41
2019-05-11T05:42:22.774Z,999.43
2019-05-11T05:43:27.305Z,999.51
2019-05-11T05:44:27.681Z,999.47
2019-05-11T05:45:23.275Z,999.45
2019-05-11T05:46:23.418Z,999.53
2019-05-11T05:47:23.552Z,999.41
2019-05-11T05:48:23.693Z,999.47
2019-05-11T05:49:23.857Z,999.44
2019-05-11T05:50:23.990Z,999.45
2019-05-11T05:51:24.138Z,999.45
2019-05-11T05:52:24.280Z,999.44
2019-05-11T05:53:24.467Z,999.44
2019-05-11T05:54:24.639Z,999.47
2019-05-11T05:55:24.801Z,999.49
2019-05-11T05:56:24.944Z,999.43
2019-05-11T05:57:25.140Z,999.43
2019-05-11T05:58:25.273Z,999.47
2019-05-11T05:59:25.454Z,999.41
2019-05-11T06:00:25.590Z,999.44
2019-05-11T06:01:25.744Z,999.48
2019-05-11T06:02:25.945Z,999.41
2019-05-11T06:03:26.111Z,999.48
2019-05-11T06:04:26.270Z,999.44
2019-05-11T06:05:26.410Z,999.47
2019-05-11T06:06:26.560Z,999.49
2019-05-11T06:07:27.711Z,999.50
2019-05-11T06:08:26.933Z,999.53
2019-05-11T06:09:26.972Z,999.56
2019-05-11T06:10:27.169Z,999.57
2019-05-11T06:11:27.327Z,999.49
2019-05-11T06:12:27.549Z,999.52
2019-05-11T06:13:43.984Z,999.56
2019-05-11T06:14:29.860Z,999.57
2019-05-11T06:15:28.130Z,999.57
2019-05-11T06:16:28.292Z,999.57
2019-05-11T06:17:28.479Z,999.50
2019-05-11T06:18:28.647Z,999.55
2019-05-11T06:19:28.828Z,999.56
2019-05-11T06:20:29.006Z,999.58
2019-05-11T06:21:29.158Z,999.58
2019-05-11T06:22:29.316Z,999.57
2019-05-11T06:23:29.506Z,999.61
2019-05-11T06:24:29.653Z,999.58
2019-05-11T06:25:29.855Z,999.54
2019-05-11T06:26:30.035Z,999.49
2019-05-11T06:27:30.206Z,999.51
2019-05-11T06:28:30.376Z,999.44
2019-05-11T06:29:30.548Z,999.45
2019-05-11T06:30:30.760Z,999.49
2019-05-11T06:31:30.923Z,999.49
2019-05-11T06:32:31.067Z,999.54
2019-05-11T06:33:31.254Z,999.52
2019-05-11T06:34:31.423Z,999.49
2019-05-11T06:35:31.618Z,999.56
2019-05-11T06:36:31.784Z,999.52
2019-05-11T06:37:31.958Z,999.52
2019-05-11T06:38:32.096Z,999.55
2019-05-11T06:39:32.251Z,999.50
2019-05-11T06:40:32.398Z,999.53
2019-05-11T06:41:32.587Z,999.57
2019-05-11T06:42:32.730Z,999.59
2019-05-11T06:43:32.954Z,999.60
2019-05-11T06:44:33.124Z,999.58
2019-05-11T06:45:33.298Z,999.51
2019-05-11T06:46:35.127Z,999.54
2019-05-11T06:47:34.583Z,999.57
2019-05-11T06:48:33.792Z,999.56
2019-05-11T06:49:33.863Z,999.47
2019-05-11T06:50:34.072Z,999.52
2019-05-11T06:51:34.256Z,999.45
2019-05-11T06:52:34.437Z,999.55
2019-05-11T06:53:34.606Z,999.48
2019-05-11T06:54:34.897Z,999.51
2019-05-11T06:55:34.941Z,999.51
2019-05-11T06:56:35.150Z,999.47
2019-05-11T06:57:35.332Z,999.49
2019-05-11T06:58:35.560Z,999.40
2019-05-11T06:59:35.759Z,999.46
2019-05-11T07:00:35.925Z,999.42
2019-05-11T07:01:36.154Z,999.45
2019-05-11T07:02:36.296Z,999.46
2019-05-11T07:03:36.473Z,999.52
2019-05-11T07:04:36.679Z,999.48
2019-05-11T07:05:36.849Z,999.48
2019-05-11T07:06:37.019Z,999.45
2019-05-11T07:07:47.274Z,999.42
2019-05-11T07:08:39.383Z,999.41
2019-05-11T07:09:37.562Z,999.44
2019-05-11T07:10:37.730Z,999.50
2019-05-11T07:11:37.908Z,999.47
2019-05-11T07:12:38.104Z,999.47
2019-05-11T07:13:38.266Z,999.53
2019-05-11T07:14:38.450Z,999.48
2019-05-11T07:15:38.621Z,999.54
2019-05-11T07:16:38.810Z,999.46
2019-05-11T07:17:38.982Z,999.49
2019-05-11T07:18:39.164Z,999.52
2019-05-11T07:19:39.363Z,999.42
2019-05-11T07:20:50.099Z,999.48
2019-05-11T07:21:41.701Z,999.49
2019-05-11T07:22:39.804Z,999.50
2019-05-11T07:23:40.990Z,999.38
2019-05-11T07:24:40.107Z,999.38
2019-05-11T07:25:40.997Z,999.42
2019-05-11T07:26:40.543Z,999.45
2019-05-11T07:27:40.719Z,999.48
2019-05-11T07:28:40.908Z,999.47
2019-05-11T07:29:41.155Z,999.51
2019-05-11T07:30:41.333Z,999.46
2019-05-11T07:31:41.530Z,999.54
2019-05-11T07:32:41.741Z,999.48
2019-05-11T07:33:41.924Z,999.50
2019-05-11T07:34:42.125Z,999.52
2019-05-11T07:35:42.336Z,999.53
2019-05-11T07:36:42.509Z,999.47
2019-05-11T07:37:42.679Z,999.48
2019-05-11T07:38:42.822Z,999.61
2019-05-11T07:39:42.997Z,999.47
2019-05-11T07:40:43.233Z,999.43
2019-05-11T07:41:43.482Z,999.52
2019-05-11T07:42:43.645Z,999.44
2019-05-11T07:43:43.820Z,999.50
2019-05-11T07:44:43.996Z,999.46
2019-05-11T07:45:44.173Z,999.51
2019-05-11T07:46:44.425Z,999.49
2019-05-11T07:47:44.572Z,999.48
2019-05-11T07:48:44.803Z,999.53
2019-05-11T07:49:45.001Z,999.52
2019-05-11T07:50:45.181Z,999.59
2019-05-11T07:51:45.364Z,999.66
2019-05-11T07:52:45.576Z,999.60
2019-05-11T07:53:45.788Z,999.66
2019-05-11T07:54:51.844Z,999.60
2019-05-11T07:55:48.543Z,999.66
2019-05-11T07:56:47.942Z,999.57
2019-05-11T07:57:48.153Z,999.68
2019-05-11T07:58:48.106Z,999.65
2019-05-11T07:59:48.628Z,999.68
2019-05-11T08:00:48.851Z,999.64
2019-05-11T08:01:48.120Z,999.64
2019-05-11T08:02:48.043Z,999.69
2019-05-11T08:03:48.542Z,999.71
2019-05-11T08:04:48.470Z,999.74
2019-05-11T08:05:47.962Z,999.73
2019-05-11T08:06:48.933Z,999.73
2019-05-11T08:07:48.382Z,999.76
2019-05-11T08:08:49.227Z,999.74
2019-05-11T08:09:48.522Z,999.77
2019-05-11T08:10:49.828Z,999.80
2019-05-11T08:11:48.720Z,999.69
2019-05-11T08:12:48.864Z,999.73
2019-05-11T08:13:48.930Z,999.76
2019-05-11T08:14:58.869Z,999.71
2019-05-11T08:15:51.298Z,999.80
2019-05-11T08:16:49.470Z,999.75
2019-05-11T08:17:49.819Z,999.75
2019-05-11T08:18:49.903Z,999.74
2019-05-11T08:19:49.926Z,999.73
2019-05-11T08:20:50.117Z,999.74
2019-05-11T08:21:50.335Z,999.68
2019-05-11T08:22:50.546Z,999.69
2019-05-11T08:23:50.749Z,999.70
2019-05-11T08:24:50.941Z,999.65
2019-05-11T08:25:54.300Z,999.67
2019-05-11T08:26:51.334Z,999.71
2019-05-11T08:27:51.533Z,999.67
2019-05-11T08:28:51.704Z,999.67
2019-05-11T08:29:51.955Z,999.65
2019-05-11T08:30:52.139Z,999.68
2019-05-11T08:31:52.335Z,999.77
2019-05-11T08:32:52.504Z,999.82
2019-05-11T08:33:52.689Z,999.85
2019-05-11T08:34:52.898Z,999.80
2019-05-11T08:35:52.976Z,999.89
2019-05-11T08:36:53.143Z,999.91
2019-05-11T08:37:53.342Z,999.88
2019-05-11T08:38:53.537Z,999.86
2019-05-11T08:39:53.732Z,999.93
2019-05-11T08:40:53.910Z,999.87
2019-05-11T08:41:54.071Z,999.89
2019-05-11T08:42:54.247Z,999.96
2019-05-11T08:43:54.436Z,999.98
2019-05-11T08:44:54.607Z,999.97
2019-05-11T08:45:54.771Z,999.96
2019-05-11T08:46:54.945Z,999.92
2019-05-11T08:47:55.145Z,999.97
2019-05-11T08:48:55.354Z,999.92
2019-05-11T08:49:55.551Z,1000.06
2019-05-11T08:50:58.009Z,999.93
2019-05-11T08:51:57.821Z,1000.01
2019-05-11T08:52:58.135Z,999.97
2019-05-11T08:53:58.283Z,1000.04
2019-05-11T08:54:57.755Z,1000.07
2019-05-11T08:55:58.784Z,1000.00
2019-05-11T08:56:58.728Z,1000.00
2019-05-11T08:57:58.517Z,1000.04
2019-05-11T08:58:58.763Z,1000.03
2019-05-11T08:59:58.299Z,1000.10
2019-05-11T09:00:58.214Z,1000.06
2019-05-11T09:01:58.948Z,1000.14
2019-05-11T09:02:58.769Z,1000.14
2019-05-11T09:03:58.487Z,1000.18
2019-05-11T09:04:59.152Z,1000.13
2019-05-11T09:05:58.283Z,1000.10
2019-05-11T09:06:58.807Z,1000.23
2019-05-11T09:07:59.673Z,1000.22
2019-05-11T09:08:58.786Z,1000.21
2019-05-11T09:09:59.958Z,1000.22
2019-05-11T09:10:59.139Z,1000.25
2019-05-11T09:11:59.483Z,1000.34
2019-05-11T09:12:59.535Z,1000.31
2019-05-11T09:13:59.690Z,1000.33
2019-05-11T09:14:59.856Z,1000.34
2019-05-11T09:16:00.089Z,1000.35
2019-05-11T09:17:00.142Z,1000.35
2019-05-11T09:18:00.327Z,1000.34
2019-05-11T09:19:00.509Z,1000.36
2019-05-11T09:20:00.686Z,1000.37
2019-05-11T09:21:00.896Z,1000.34
2019-05-11T09:22:03.162Z,1000.44
2019-05-11T09:23:02.256Z,1000.45
2019-05-11T09:24:01.354Z,1000.49
2019-05-11T09:25:01.522Z,1000.47
2019-05-11T09:26:01.702Z,1000.45
2019-05-11T09:27:01.847Z,1000.36
2019-05-11T09:28:01.980Z,1000.47
2019-05-11T09:29:02.151Z,1000.46
2019-05-11T09:30:02.341Z,1000.51
2019-05-11T09:31:02.544Z,1000.48
2019-05-11T09:32:02.732Z,1000.54
2019-05-11T09:33:02.911Z,1000.53
2019-05-11T09:34:03.157Z,1000.52
2019-05-11T09:35:03.796Z,1000.51
2019-05-11T09:36:03.533Z,1000.64
2019-05-11T09:37:03.689Z,1000.64
2019-05-11T09:38:04.852Z,1000.60
2019-05-11T09:39:03.993Z,1000.60
2019-05-11T09:40:04.539Z,1000.62
2019-05-11T09:41:07.783Z,1000.71
2019-05-11T09:42:04.635Z,1000.72
2019-05-11T09:43:04.668Z,1000.72
2019-05-11T09:44:05.832Z,1000.76
2019-05-11T09:45:04.979Z,1000.76
2019-05-11T09:46:05.124Z,1000.78
2019-05-11T09:47:05.321Z,1000.80
2019-05-11T09:48:05.490Z,1000.83
2019-05-11T09:49:07.844Z,1000.89
2019-05-11T09:50:08.406Z,1000.86
2019-05-11T09:51:07.870Z,1000.86
2019-05-11T09:52:07.851Z,1000.92
2019-05-11T09:53:08.478Z,1000.88
2019-05-11T09:54:07.909Z,1000.91
2019-05-11T09:55:08.735Z,1000.91
2019-05-11T09:56:08.204Z,1000.87
2019-05-11T09:57:08.439Z,1000.92
2019-05-11T09:58:08.632Z,1000.95
2019-05-11T09:59:08.961Z,1000.90
2019-05-11T10:00:08.806Z,1000.90
2019-05-11T10:01:08.980Z,1001.00
2019-05-11T10:02:08.919Z,1001.02
2019-05-11T10:03:08.386Z,1000.97
2019-05-11T10:04:09.259Z,1001.05
2019-05-11T10:05:08.772Z,1001.03
2019-05-11T10:06:08.702Z,1001.05
2019-05-11T10:07:09.126Z,1001.03
2019-05-11T10:08:10.803Z,1001.02
2019-05-11T10:09:09.132Z,1001.01
2019-05-11T10:10:09.485Z,1000.98
2019-05-11T10:11:09.439Z,1001.03
2019-05-11T10:12:09.649Z,1001.06
2019-05-11T10:13:09.984Z,1001.13
2019-05-11T10:14:10.100Z,1001.18
2019-05-11T10:15:10.302Z,1001.10
2019-05-11T10:16:10.764Z,1001.09
2019-05-11T10:17:11.642Z,1001.10
2019-05-11T10:18:10.812Z,1001.07
2019-05-11T10:19:11.035Z,1001.13
2019-05-11T10:20:11.240Z,1001.17
2019-05-11T10:21:11.445Z,1001.15
2019-05-11T10:22:11.656Z,1001.08
2019-05-11T10:23:11.838Z,1001.20
2019-05-11T10:24:12.070Z,1001.14
2019-05-11T10:25:12.254Z,1001.16
2019-05-11T10:26:12.437Z,1001.18
2019-05-11T10:27:12.620Z,1001.19
2019-05-11T10:28:12.799Z,1001.20
2019-05-11T10:29:12.987Z,1001.19
2019-05-11T10:30:13.257Z,1001.23
2019-05-11T10:31:13.304Z,1001.16
2019-05-11T10:32:13.453Z,1001.24
2019-05-11T10:33:13.607Z,1001.23
2019-05-11T10:34:13.779Z,1001.18
2019-05-11T10:35:14.034Z,1001.26
2019-05-11T10:36:14.049Z,1001.34
2019-05-11T10:37:14.177Z,1001.35
2019-05-11T10:38:14.332Z,1001.32
2019-05-11T10:39:14.509Z,1001.35
2019-05-11T10:40:15.784Z,1001.33
2019-05-11T10:41:14.927Z,1001.35
2019-05-11T10:42:15.104Z,1001.40
2019-05-11T10:43:15.326Z,1001.28
2019-05-11T10:44:15.409Z,1001.28
2019-05-11T10:45:17.837Z,1001.40
2019-05-11T10:46:20.199Z,1001.32
2019-05-11T10:47:18.557Z,1001.29
2019-05-11T10:48:17.703Z,1001.38
2019-05-11T10:49:18.481Z,1001.31
2019-05-11T10:50:18.746Z,1001.41
2019-05-11T10:51:18.320Z,1001.32
2019-05-11T10:52:18.125Z,1001.30
2019-05-11T10:53:18.618Z,1001.30
2019-05-11T10:54:18.835Z,1001.36
2019-05-11T10:55:19.342Z,1001.43
2019-05-11T10:56:18.504Z,1001.44
2019-05-11T10:57:18.991Z,1001.44
2019-05-11T10:58:18.882Z,1001.47
2019-05-11T10:59:18.757Z,1001.49
2019-05-11T11:00:19.252Z,1001.48
2019-05-11T11:01:18.435Z,1001.49
2019-05-11T11:02:18.659Z,1001.53
2019-05-11T11:03:18.832Z,1001.60
2019-05-11T11:04:19.017Z,1001.58
2019-05-11T11:05:19.177Z,1001.62
2019-05-11T11:06:19.382Z,1001.56
2019-05-11T11:07:19.610Z,1001.65
2019-05-11T11:08:19.817Z,1001.63
2019-05-11T11:09:20.019Z,1001.57
2019-05-11T11:10:20.345Z,1001.64
2019-05-11T11:11:20.437Z,1001.57
2019-05-11T11:12:20.730Z,1001.64
2019-05-11T11:13:22.009Z,1001.65
2019-05-11T11:14:20.966Z,1001.69
2019-05-11T11:15:21.157Z,1001.65
2019-05-11T11:16:35.537Z,1001.72
2019-05-11T11:17:23.512Z,1001.67
2019-05-11T11:18:21.786Z,1001.69
2019-05-11T11:19:21.839Z,1001.70
2019-05-11T11:20:22.047Z,1001.71
2019-05-11T11:21:23.091Z,1001.73
2019-05-11T11:23:24.567Z,1001.73
2019-05-11T11:24:22.725Z,1001.83
2019-05-11T11:25:22.930Z,1001.79
2019-05-11T11:26:23.134Z,1001.84
2019-05-11T11:27:23.373Z,1001.80
2019-05-11T11:28:23.567Z,1001.85
2019-05-11T11:29:23.762Z,1001.91
2019-05-11T11:30:24.002Z,1001.90
2019-05-11T11:31:24.214Z,1001.89
2019-05-11T11:32:24.410Z,1001.98
2019-05-11T11:33:24.708Z,1002.05
2019-05-11T11:34:24.737Z,1002.03
2019-05-11T11:35:24.928Z,1002.04
2019-05-11T11:36:25.136Z,1002.03
2019-05-11T11:37:25.366Z,1002.03
2019-05-11T11:38:25.597Z,1002.05
2019-05-11T11:39:28.034Z,1002.03
2019-05-11T11:40:28.115Z,1002.04
2019-05-11T11:41:26.064Z,1002.02
2019-05-11T11:42:28.260Z,1002.14
2019-05-11T11:43:28.670Z,1002.12
2019-05-11T11:44:28.545Z,1002.10
2019-05-11T11:45:28.833Z,1002.07
2019-05-11T11:46:27.784Z,1002.08
2019-05-11T11:47:28.197Z,1002.15
2019-05-11T11:48:28.331Z,1002.15
2019-05-11T11:49:28.208Z,1002.15
2019-05-11T11:50:28.573Z,1002.21
2019-05-11T11:51:28.626Z,1002.21
2019-05-11T11:52:29.084Z,1002.25
2019-05-11T11:53:29.204Z,1002.24
2019-05-11T11:54:28.900Z,1002.17
2019-05-11T11:55:29.595Z,1002.25
2019-05-11T11:56:28.844Z,1002.29
2019-05-11T11:57:28.982Z,1002.22
2019-05-11T11:58:29.162Z,1002.23
2019-05-11T11:59:29.383Z,1002.23
2019-05-11T12:00:29.545Z,1002.26
2019-05-11T12:01:29.696Z,1002.23
2019-05-11T12:02:29.832Z,1002.24
2019-05-11T12:03:30.092Z,1002.31
2019-05-11T12:04:30.113Z,1002.33
2019-05-11T12:05:30.265Z,1002.37
2019-05-11T12:06:30.482Z,1002.37
2019-05-11T12:07:30.619Z,1002.44
2019-05-11T12:08:30.788Z,1002.33
2019-05-11T12:09:30.926Z,1002.38
2019-05-11T12:10:31.189Z,1002.44
2019-05-11T12:11:31.355Z,1002.40
2019-05-11T12:12:31.415Z,1002.48
2019-05-11T12:13:31.623Z,1002.50
2019-05-11T12:14:31.764Z,1002.46
2019-05-11T12:15:31.947Z,1002.60
2019-05-11T12:16:32.123Z,1002.71
2019-05-11T12:17:32.444Z,1002.55
2019-05-11T12:18:32.494Z,1002.61
2019-05-11T12:19:32.641Z,1002.55
2019-05-11T12:20:32.830Z,1002.57
2019-05-11T12:21:32.998Z,1002.58
2019-05-11T12:22:33.154Z,1002.64
2019-05-11T12:23:33.324Z,1002.59
2019-05-11T12:24:33.505Z,1002.60